sensor_id;sensor_type;location;lat;lon;timestamp;temperature;humidity
5286;DHT22;2665;53.112;7.358;2022-08-24T00:01:18;19.80;1.00
5286;DHT22;2665;53.112;7.358;2022-08-24T00:03:45;19.80;1.00
5286;DHT22;2665;53.112;7.358;2022-08-24T00:06:14;19.70;1.00
5286;DHT22;2665;53.112;7.358;2022-08-24T00:08:40;19.70;1.00
5286;DHT22;2665;53.112;7.358;2022-08-24T00:11:07;19.60;1.00
5286;DHT22;2665;53.112;7.358;2022-08-24T00:13:33;19.60;1.00
5286;DHT22;2665;53.112;7.358;2022-08-24T00:15:59;19.50;1.00
5286;DHT22;2665;53.112;7.358;2022-08-24T00:18:25;19.50;1.00
5286;DHT22;2665;53.112;7.358;2022-08-24T00:20:51;19.50;1.00
5286;DHT22;2665;53.112;7.358;2022-08-24T00:23:17;19.40;1.00
5286;DHT22;2665;53.112;7.358;2022-08-24T00:25:43;19.40;1.00
5286;DHT22;2665;53.112;7.358;2022-08-24T00:28:09;19.30;1.00
5286;DHT22;2665;53.112;7.358;2022-08-24T00:30:35;19.30;2.10
5286;DHT22;2665;53.112;7.358;2022-08-24T00:33:01;19.20;2.30
5286;DHT22;2665;53.112;7.358;2022-08-24T00:35:27;19.20;2.30
5286;DHT22;2665;53.112;7.358;2022-08-24T00:37:53;19.20;3.10
5286;DHT22;2665;53.112;7.358;2022-08-24T00:40:32;19.10;5.00
5286;DHT22;2665;53.112;7.358;2022-08-24T00:42:59;19.20;17.80
5286;DHT22;2665;53.112;7.358;2022-08-24T00:48:21;19.10;6.10
5286;DHT22;2665;53.112;7.358;2022-08-24T00:50:56;19.00;6.20
5286;DHT22;2665;53.112;7.358;2022-08-24T00:53:30;18.90;7.50
5286;DHT22;2665;53.112;7.358;2022-08-24T00:56:02;18.80;8.80
5286;DHT22;2665;53.112;7.358;2022-08-24T00:58:33;18.80;9.10
5286;DHT22;2665;53.112;7.358;2022-08-24T01:01:02;18.70;9.40
5286;DHT22;2665;53.112;7.358;2022-08-24T01:03:28;18.60;10.20
5286;DHT22;2665;53.112;7.358;2022-08-24T01:05:55;18.60;11.00
5286;DHT22;2665;53.112;7.358;2022-08-24T01:08:21;18.50;12.60
5286;DHT22;2665;53.112;7.358;2022-08-24T01:11:02;18.50;14.20
5286;DHT22;2665;53.112;7.358;2022-08-24T01:13:31;18.50;15.90
5286;DHT22;2665;53.112;7.358;2022-08-24T01:16:01;18.40;17.40
5286;DHT22;2665;53.112;7.358;2022-08-24T01:18:29;18.30;18.40
5286;DHT22;2665;53.112;7.358;2022-08-24T01:21:33;18.20;19.70
5286;DHT22;2665;53.112;7.358;2022-08-24T01:24:10;18.20;23.60
5286;DHT22;2665;53.112;7.358;2022-08-24T01:26:40;18.10;25.10
5286;DHT22;2665;53.112;7.358;2022-08-24T01:29:13;18.00;27.50
5286;DHT22;2665;53.112;7.358;2022-08-24T01:31:40;18.00;29.50
5286;DHT22;2665;53.112;7.358;2022-08-24T01:34:05;18.00;31.60
5286;DHT22;2665;53.112;7.358;2022-08-24T01:36:38;18.00;33.60
5286;DHT22;2665;53.112;7.358;2022-08-24T01:39:16;18.00;36.70
5286;DHT22;2665;53.112;7.358;2022-08-24T01:41:45;18.00;39.20
5286;DHT22;2665;53.112;7.358;2022-08-24T01:44:10;17.90;41.10
5286;DHT22;2665;53.112;7.358;2022-08-24T01:46:36;17.90;41.60
5286;DHT22;2665;53.112;7.358;2022-08-24T01:49:02;17.90;44.70
5286;DHT22;2665;53.112;7.358;2022-08-24T01:51:31;17.90;47.60
5286;DHT22;2665;53.112;7.358;2022-08-24T01:53:59;17.90;50.90
5286;DHT22;2665;53.112;7.358;2022-08-24T01:56:27;17.90;54.70
5286;DHT22;2665;53.112;7.358;2022-08-24T01:58:53;17.90;53.70
5286;DHT22;2665;53.112;7.358;2022-08-24T02:01:19;17.80;56.20
5286;DHT22;2665;53.112;7.358;2022-08-24T02:03:45;17.80;58.50
5286;DHT22;2665;53.112;7.358;2022-08-24T02:06:11;17.80;61.00
5286;DHT22;2665;53.112;7.358;2022-08-24T02:08:36;17.80;62.80
5286;DHT22;2665;53.112;7.358;2022-08-24T02:11:06;17.80;63.60
5286;DHT22;2665;53.112;7.358;2022-08-24T02:13:33;17.80;63.00
5286;DHT22;2665;53.112;7.358;2022-08-24T02:16:00;17.70;62.00
5286;DHT22;2665;53.112;7.358;2022-08-24T02:18:25;17.60;64.50
5286;DHT22;2665;53.112;7.358;2022-08-24T02:20:51;17.60;67.60
5286;DHT22;2665;53.112;7.358;2022-08-24T02:23:17;17.50;73.30
5286;DHT22;2665;53.112;7.358;2022-08-24T02:25:45;17.60;76.90
5286;DHT22;2665;53.112;7.358;2022-08-24T02:28:11;17.60;80.70
5286;DHT22;2665;53.112;7.358;2022-08-24T02:30:37;17.70;83.50
5286;DHT22;2665;53.112;7.358;2022-08-24T02:33:04;17.70;83.60
5286;DHT22;2665;53.112;7.358;2022-08-24T02:35:30;17.70;78.80
5286;DHT22;2665;53.112;7.358;2022-08-24T02:37:56;17.60;78.00
5286;DHT22;2665;53.112;7.358;2022-08-24T02:40:23;17.50;79.50
5286;DHT22;2665;53.112;7.358;2022-08-24T02:42:48;17.50;78.90
5286;DHT22;2665;53.112;7.358;2022-08-24T02:45:14;17.40;80.90
5286;DHT22;2665;53.112;7.358;2022-08-24T02:47:40;17.30;82.10
5286;DHT22;2665;53.112;7.358;2022-08-24T02:50:09;17.30;86.70
5286;DHT22;2665;53.112;7.358;2022-08-24T02:52:36;17.30;90.80
5286;DHT22;2665;53.112;7.358;2022-08-24T02:55:04;17.20;93.10
5286;DHT22;2665;53.112;7.358;2022-08-24T02:57:31;17.20;94.00
5286;DHT22;2665;53.112;7.358;2022-08-24T02:59:56;17.20;96.70
5286;DHT22;2665;53.112;7.358;2022-08-24T03:02:22;17.20;98.80
5286;DHT22;2665;53.112;7.358;2022-08-24T03:04:47;17.20;99.90
5286;DHT22;2665;53.112;7.358;2022-08-24T03:07:13;17.20;99.90
5286;DHT22;2665;53.112;7.358;2022-08-24T03:09:39;17.20;99.90
5286;DHT22;2665;53.112;7.358;2022-08-24T03:12:04;17.20;99.90
5286;DHT22;2665;53.112;7.358;2022-08-24T03:14:30;17.20;99.90
5286;DHT22;2665;53.112;7.358;2022-08-24T03:16:55;17.20;99.90
5286;DHT22;2665;53.112;7.358;2022-08-24T03:19:21;17.20;99.90
5286;DHT22;2665;53.112;7.358;2022-08-24T03:21:47;17.10;99.90
5286;DHT22;2665;53.112;7.358;2022-08-24T03:24:13;17.10;99.90
5286;DHT22;2665;53.112;7.358;2022-08-24T03:26:39;17.20;99.90
5286;DHT22;2665;53.112;7.358;2022-08-24T03:29:05;17.20;99.90
5286;DHT22;2665;53.112;7.358;2022-08-24T03:31:31;17.10;99.90
5286;DHT22;2665;53.112;7.358;2022-08-24T03:33:56;17.10;99.90
5286;DHT22;2665;53.112;7.358;2022-08-24T03:36:22;17.10;99.90
5286;DHT22;2665;53.112;7.358;2022-08-24T03:38:47;17.20;99.90
5286;DHT22;2665;53.112;7.358;2022-08-24T03:41:13;17.20;99.90
5286;DHT22;2665;53.112;7.358;2022-08-24T03:43:39;17.20;99.90
5286;DHT22;2665;53.112;7.358;2022-08-24T03:46:12;17.20;99.90
5286;DHT22;2665;53.112;7.358;2022-08-24T03:48:39;17.10;99.90
5286;DHT22;2665;53.112;7.358;2022-08-24T03:51:06;17.10;99.90
5286;DHT22;2665;53.112;7.358;2022-08-24T03:53:34;17.10;99.90
5286;DHT22;2665;53.112;7.358;2022-08-24T03:56:00;17.00;99.90
5286;DHT22;2665;53.112;7.358;2022-08-24T03:58:26;17.00;99.90
5286;DHT22;2665;53.112;7.358;2022-08-24T04:00:52;16.90;99.90
5286;DHT22;2665;53.112;7.358;2022-08-24T04:03:18;16.90;99.90
5286;DHT22;2665;53.112;7.358;2022-08-24T04:05:43;16.80;99.90
5286;DHT22;2665;53.112;7.358;2022-08-24T04:08:09;16.80;99.90
5286;DHT22;2665;53.112;7.358;2022-08-24T04:10:36;16.80;99.90
5286;DHT22;2665;53.112;7.358;2022-08-24T04:13:02;16.80;1.00
5286;DHT22;2665;53.112;7.358;2022-08-24T04:15:29;16.80;1.00
5286;DHT22;2665;53.112;7.358;2022-08-24T04:17:56;16.80;1.00
5286;DHT22;2665;53.112;7.358;2022-08-24T04:20:22;16.80;1.00
5286;DHT22;2665;53.112;7.358;2022-08-24T04:22:50;16.80;1.00
5286;DHT22;2665;53.112;7.358;2022-08-24T04:25:16;16.80;1.00
5286;DHT22;2665;53.112;7.358;2022-08-24T04:27:41;16.70;1.00
5286;DHT22;2665;53.112;7.358;2022-08-24T04:30:07;16.70;1.00
5286;DHT22;2665;53.112;7.358;2022-08-24T04:32:33;16.70;1.00
5286;DHT22;2665;53.112;7.358;2022-08-24T04:35:00;16.70;1.00
5286;DHT22;2665;53.112;7.358;2022-08-24T04:37:25;16.70;1.00
5286;DHT22;2665;53.112;7.358;2022-08-24T04:39:51;16.70;1.00
5286;DHT22;2665;53.112;7.358;2022-08-24T04:42:17;16.70;1.00
5286;DHT22;2665;53.112;7.358;2022-08-24T04:44:44;16.70;1.00
5286;DHT22;2665;53.112;7.358;2022-08-24T04:47:10;16.70;23.00
5286;DHT22;2665;53.112;7.358;2022-08-24T04:49:36;16.70;99.90
5286;DHT22;2665;53.112;7.358;2022-08-24T04:52:03;16.70;99.90
5286;DHT22;2665;53.112;7.358;2022-08-24T04:54:30;16.70;99.90
5286;DHT22;2665;53.112;7.358;2022-08-24T04:56:56;16.70;99.90
5286;DHT22;2665;53.112;7.358;2022-08-24T04:59:22;16.80;1.00
5286;DHT22;2665;53.112;7.358;2022-08-24T05:01:47;16.90;1.00
5286;DHT22;2665;53.112;7.358;2022-08-24T05:04:13;16.90;1.00
5286;DHT22;2665;53.112;7.358;2022-08-24T05:06:39;16.90;1.00
5286;DHT22;2665;53.112;7.358;2022-08-24T05:09:05;17.00;53.60
5286;DHT22;2665;53.112;7.358;2022-08-24T05:11:31;17.00;99.90
5286;DHT22;2665;53.112;7.358;2022-08-24T05:13:57;17.10;99.90
5286;DHT22;2665;53.112;7.358;2022-08-24T05:16:24;17.00;99.90
5286;DHT22;2665;53.112;7.358;2022-08-24T05:18:51;17.00;99.90
5286;DHT22;2665;53.112;7.358;2022-08-24T05:21:19;17.00;99.90
5286;DHT22;2665;53.112;7.358;2022-08-24T05:23:45;17.00;99.90
5286;DHT22;2665;53.112;7.358;2022-08-24T05:26:13;17.00;1.00
5286;DHT22;2665;53.112;7.358;2022-08-24T05:28:40;17.00;1.00
5286;DHT22;2665;53.112;7.358;2022-08-24T05:31:18;17.00;1.00
5286;DHT22;2665;53.112;7.358;2022-08-24T05:33:45;17.10;9.60
5286;DHT22;2665;53.112;7.358;2022-08-24T05:36:31;17.10;99.90
5286;DHT22;2665;53.112;7.358;2022-08-24T05:39:01;17.10;99.90
5286;DHT22;2665;53.112;7.358;2022-08-24T05:41:28;17.10;1.00
5286;DHT22;2665;53.112;7.358;2022-08-24T05:43:53;17.10;1.00
5286;DHT22;2665;53.112;7.358;2022-08-24T05:46:20;17.20;28.10
5286;DHT22;2665;53.112;7.358;2022-08-24T05:48:46;17.30;99.90
5286;DHT22;2665;53.112;7.358;2022-08-24T05:51:12;17.30;1.00
5286;DHT22;2665;53.112;7.358;2022-08-24T05:53:39;17.40;1.00
5286;DHT22;2665;53.112;7.358;2022-08-24T05:56:07;17.50;1.00
5286;DHT22;2665;53.112;7.358;2022-08-24T05:58:33;17.60;1.00
5286;DHT22;2665;53.112;7.358;2022-08-24T06:01:04;17.70;1.00
5286;DHT22;2665;53.112;7.358;2022-08-24T06:03:29;17.70;99.90
5286;DHT22;2665;53.112;7.358;2022-08-24T06:05:55;17.80;99.90
5286;DHT22;2665;53.112;7.358;2022-08-24T06:08:21;17.90;1.00
5286;DHT22;2665;53.112;7.358;2022-08-24T06:10:48;18.00;1.00
5286;DHT22;2665;53.112;7.358;2022-08-24T06:13:15;18.00;1.00
5286;DHT22;2665;53.112;7.358;2022-08-24T06:15:41;18.10;1.00
5286;DHT22;2665;53.112;7.358;2022-08-24T06:18:07;18.20;1.00
5286;DHT22;2665;53.112;7.358;2022-08-24T06:20:38;18.40;1.00
5286;DHT22;2665;53.112;7.358;2022-08-24T06:23:05;18.50;99.90
5286;DHT22;2665;53.112;7.358;2022-08-24T06:25:30;18.60;99.90
5286;DHT22;2665;53.112;7.358;2022-08-24T06:28:14;18.70;1.00
5286;DHT22;2665;53.112;7.358;2022-08-24T06:30:40;18.80;1.00
5286;DHT22;2665;53.112;7.358;2022-08-24T06:33:07;18.90;1.00
5286;DHT22;2665;53.112;7.358;2022-08-24T06:35:33;18.90;99.90
5286;DHT22;2665;53.112;7.358;2022-08-24T06:37:59;19.10;99.90
5286;DHT22;2665;53.112;7.358;2022-08-24T06:40:25;19.20;99.90
5286;DHT22;2665;53.112;7.358;2022-08-24T06:42:52;19.20;1.00
5286;DHT22;2665;53.112;7.358;2022-08-24T06:45:17;19.40;99.90
5286;DHT22;2665;53.112;7.358;2022-08-24T06:47:43;19.40;99.90
5286;DHT22;2665;53.112;7.358;2022-08-24T06:50:09;19.50;1.00
5286;DHT22;2665;53.112;7.358;2022-08-24T06:52:35;19.60;1.00
5286;DHT22;2665;53.112;7.358;2022-08-24T06:55:04;19.70;1.00
5286;DHT22;2665;53.112;7.358;2022-08-24T06:57:30;19.80;99.90
5286;DHT22;2665;53.112;7.358;2022-08-24T06:59:56;19.80;99.90
5286;DHT22;2665;53.112;7.358;2022-08-24T07:02:21;19.90;99.90
5286;DHT22;2665;53.112;7.358;2022-08-24T07:04:47;20.00;99.90
5286;DHT22;2665;53.112;7.358;2022-08-24T07:07:13;20.00;99.90
5286;DHT22;2665;53.112;7.358;2022-08-24T07:09:40;20.10;99.90
5286;DHT22;2665;53.112;7.358;2022-08-24T07:12:06;20.20;99.90
5286;DHT22;2665;53.112;7.358;2022-08-24T07:14:32;20.20;99.90
5286;DHT22;2665;53.112;7.358;2022-08-24T07:16:57;20.30;99.90
5286;DHT22;2665;53.112;7.358;2022-08-24T07:19:23;20.30;99.90
5286;DHT22;2665;53.112;7.358;2022-08-24T07:21:49;20.40;94.90
5286;DHT22;2665;53.112;7.358;2022-08-24T07:24:19;20.50;84.70
5286;DHT22;2665;53.112;7.358;2022-08-24T07:26:45;20.50;65.20
5286;DHT22;2665;53.112;7.358;2022-08-24T07:29:12;20.60;55.30
5286;DHT22;2665;53.112;7.358;2022-08-24T07:31:40;20.70;52.70
5286;DHT22;2665;53.112;7.358;2022-08-24T07:34:08;20.80;42.70
5286;DHT22;2665;53.112;7.358;2022-08-24T07:36:35;20.90;30.80
5286;DHT22;2665;53.112;7.358;2022-08-24T07:39:02;21.00;29.40
5286;DHT22;2665;53.112;7.358;2022-08-24T07:41:27;21.10;26.70
5286;DHT22;2665;53.112;7.358;2022-08-24T07:43:54;21.20;26.40
5286;DHT22;2665;53.112;7.358;2022-08-24T07:46:21;21.20;23.60
5286;DHT22;2665;53.112;7.358;2022-08-24T07:48:47;21.30;21.10
5286;DHT22;2665;53.112;7.358;2022-08-24T07:51:15;21.50;19.60
5286;DHT22;2665;53.112;7.358;2022-08-24T07:53:42;21.60;19.30
5286;DHT22;2665;53.112;7.358;2022-08-24T07:56:09;21.70;17.20
5286;DHT22;2665;53.112;7.358;2022-08-24T07:58:34;21.80;15.90
5286;DHT22;2665;53.112;7.358;2022-08-24T08:01:01;21.90;13.50
5286;DHT22;2665;53.112;7.358;2022-08-24T08:03:28;21.90;10.50
5286;DHT22;2665;53.112;7.358;2022-08-24T08:05:56;22.10;8.70
5286;DHT22;2665;53.112;7.358;2022-08-24T08:08:23;22.10;6.10
5286;DHT22;2665;53.112;7.358;2022-08-24T08:10:49;22.20;4.40
5286;DHT22;2665;53.112;7.358;2022-08-24T08:13:15;22.30;2.90
5286;DHT22;2665;53.112;7.358;2022-08-24T08:15:41;22.40;1.60
5286;DHT22;2665;53.112;7.358;2022-08-24T08:18:07;22.50;1.00
5286;DHT22;2665;53.112;7.358;2022-08-24T08:20:33;22.60;1.00
5286;DHT22;2665;53.112;7.358;2022-08-24T08:22:59;22.80;1.00
5286;DHT22;2665;53.112;7.358;2022-08-24T08:25:48;22.90;1.00
5286;DHT22;2665;53.112;7.358;2022-08-24T08:28:14;23.00;1.00
5286;DHT22;2665;53.112;7.358;2022-08-24T08:30:40;23.10;1.00
5286;DHT22;2665;53.112;7.358;2022-08-24T08:33:06;23.20;1.00
5286;DHT22;2665;53.112;7.358;2022-08-24T08:35:32;23.30;1.00
5286;DHT22;2665;53.112;7.358;2022-08-24T08:37:59;23.50;1.00
5286;DHT22;2665;53.112;7.358;2022-08-24T08:52:16;24.10;1.00
5286;DHT22;2665;53.112;7.358;2022-08-24T08:58:05;24.20;1.00
5286;DHT22;2665;53.112;7.358;2022-08-24T09:04:18;24.40;1.00
5286;DHT22;2665;53.112;7.358;2022-08-24T09:11:49;24.70;1.00
5286;DHT22;2665;53.112;7.358;2022-08-24T09:22:38;25.20;1.00
5286;DHT22;2665;53.112;7.358;2022-08-24T09:25:23;25.30;1.00
5286;DHT22;2665;53.112;7.358;2022-08-24T09:33:30;25.70;1.00
5286;DHT22;2665;53.112;7.358;2022-08-24T09:36:30;25.80;1.00
5286;DHT22;2665;53.112;7.358;2022-08-24T09:39:09;25.90;1.00
5286;DHT22;2665;53.112;7.358;2022-08-24T09:42:00;26.00;1.00
5286;DHT22;2665;53.112;7.358;2022-08-24T09:48:47;26.20;1.00
5286;DHT22;2665;53.112;7.358;2022-08-24T09:50:54;26.40;1.00
5286;DHT22;2665;53.112;7.358;2022-08-24T10:11:29;27.50;1.00
5286;DHT22;2665;53.112;7.358;2022-08-24T10:14:03;27.50;1.00
5286;DHT22;2665;53.112;7.358;2022-08-24T10:22:30;28.00;1.00
5286;DHT22;2665;53.112;7.358;2022-08-24T10:31:05;28.10;1.00
5286;DHT22;2665;53.112;7.358;2022-08-24T10:33:55;28.10;1.00
5286;DHT22;2665;53.112;7.358;2022-08-24T10:53:48;28.80;1.00
5286;DHT22;2665;53.112;7.358;2022-08-24T10:56:17;28.90;1.00
5286;DHT22;2665;53.112;7.358;2022-08-24T10:58:57;29.00;1.00
5286;DHT22;2665;53.112;7.358;2022-08-24T11:01:30;29.10;1.00
5286;DHT22;2665;53.112;7.358;2022-08-24T11:04:07;29.20;1.00
5286;DHT22;2665;53.112;7.358;2022-08-24T11:09:12;29.40;1.00
5286;DHT22;2665;53.112;7.358;2022-08-24T11:11:46;29.40;1.00
5286;DHT22;2665;53.112;7.358;2022-08-24T11:16:44;30.10;1.00
5286;DHT22;2665;53.112;7.358;2022-08-24T11:19:31;30.60;1.00
5286;DHT22;2665;53.112;7.358;2022-08-24T11:22:01;31.90;1.00
5286;DHT22;2665;53.112;7.358;2022-08-24T11:24:43;33.30;1.00
5286;DHT22;2665;53.112;7.358;2022-08-24T11:32:29;35.20;1.00
5286;DHT22;2665;53.112;7.358;2022-08-24T11:37:38;36.50;1.00
5286;DHT22;2665;53.112;7.358;2022-08-24T11:40:05;37.00;1.00
5286;DHT22;2665;53.112;7.358;2022-08-24T11:42:56;37.30;1.00
5286;DHT22;2665;53.112;7.358;2022-08-24T11:48:52;37.60;1.00
5286;DHT22;2665;53.112;7.358;2022-08-24T11:53:58;37.60;1.00
5286;DHT22;2665;53.112;7.358;2022-08-24T12:01:58;37.50;1.00
5286;DHT22;2665;53.112;7.358;2022-08-24T12:04:51;37.60;1.00
5286;DHT22;2665;53.112;7.358;2022-08-24T12:07:38;37.90;1.00
5286;DHT22;2665;53.112;7.358;2022-08-24T12:13:03;38.60;1.00
5286;DHT22;2665;53.112;7.358;2022-08-24T12:16:14;38.70;1.00
5286;DHT22;2665;53.112;7.358;2022-08-24T12:18:43;38.90;1.00
5286;DHT22;2665;53.112;7.358;2022-08-24T12:21:13;38.50;1.00
5286;DHT22;2665;53.112;7.358;2022-08-24T12:23:48;37.90;1.00
5286;DHT22;2665;53.112;7.358;2022-08-24T12:26:40;37.70;1.00
5286;DHT22;2665;53.112;7.358;2022-08-24T12:29:31;37.80;1.00
5286;DHT22;2665;53.112;7.358;2022-08-24T12:32:06;38.10;1.00
5286;DHT22;2665;53.112;7.358;2022-08-24T12:39:44;37.70;1.00
5286;DHT22;2665;53.112;7.358;2022-08-24T12:42:19;36.50;1.00
5286;DHT22;2665;53.112;7.358;2022-08-24T12:44:57;35.40;1.00
5286;DHT22;2665;53.112;7.358;2022-08-24T12:55:48;32.90;1.00
5286;DHT22;2665;53.112;7.358;2022-08-24T12:58:24;32.60;1.00
5286;DHT22;2665;53.112;7.358;2022-08-24T13:00:56;33.00;1.00
5286;DHT22;2665;53.112;7.358;2022-08-24T13:03:29;34.00;1.00
5286;DHT22;2665;53.112;7.358;2022-08-24T13:05:59;35.20;1.00
5286;DHT22;2665;53.112;7.358;2022-08-24T13:08:37;35.90;1.00
5286;DHT22;2665;53.112;7.358;2022-08-24T13:11:06;36.30;1.00
5286;DHT22;2665;53.112;7.358;2022-08-24T13:17:07;36.60;1.00
5286;DHT22;2665;53.112;7.358;2022-08-24T13:19:39;37.20;1.00
5286;DHT22;2665;53.112;7.358;2022-08-24T13:32:21;39.10;1.00
5286;DHT22;2665;53.112;7.358;2022-08-24T13:34:56;38.80;1.00
5286;DHT22;2665;53.112;7.358;2022-08-24T13:37:25;38.20;1.00
5286;DHT22;2665;53.112;7.358;2022-08-24T13:40:16;37.90;1.00
5286;DHT22;2665;53.112;7.358;2022-08-24T13:47:51;39.00;1.00
5286;DHT22;2665;53.112;7.358;2022-08-24T13:53:15;39.70;1.00
5286;DHT22;2665;53.112;7.358;2022-08-24T13:55:49;39.50;1.00
5286;DHT22;2665;53.112;7.358;2022-08-24T13:58:41;38.50;1.00
5286;DHT22;2665;53.112;7.358;2022-08-24T14:01:27;37.40;1.00
5286;DHT22;2665;53.112;7.358;2022-08-24T14:04:07;37.30;1.00
5286;DHT22;2665;53.112;7.358;2022-08-24T14:06:54;37.80;1.00
5286;DHT22;2665;53.112;7.358;2022-08-24T14:12:17;37.50;1.00
5286;DHT22;2665;53.112;7.358;2022-08-24T14:23:25;38.10;1.00
5286;DHT22;2665;53.112;7.358;2022-08-24T14:37:19;34.90;1.00
5286;DHT22;2665;53.112;7.358;2022-08-24T14:42:25;34.60;1.00
5286;DHT22;2665;53.112;7.358;2022-08-24T14:45:10;34.30;1.00
5286;DHT22;2665;53.112;7.358;2022-08-24T14:48:03;34.20;1.00
5286;DHT22;2665;53.112;7.358;2022-08-24T14:50:38;34.20;1.00
5286;DHT22;2665;53.112;7.358;2022-08-24T14:55:41;33.60;1.00
5286;DHT22;2665;53.112;7.358;2022-08-24T15:01:11;33.70;1.00
5286;DHT22;2665;53.112;7.358;2022-08-24T15:06:49;35.40;1.00
5286;DHT22;2665;53.112;7.358;2022-08-24T15:09:32;35.20;1.00
5286;DHT22;2665;53.112;7.358;2022-08-24T15:12:31;35.50;1.00
5286;DHT22;2665;53.112;7.358;2022-08-24T15:21:15;33.10;1.00
5286;DHT22;2665;53.112;7.358;2022-08-24T15:23:17;32.50;1.00
5286;DHT22;2665;53.112;7.358;2022-08-24T15:25:47;31.90;1.00
5286;DHT22;2665;53.112;7.358;2022-08-24T15:28:25;31.40;1.00
5286;DHT22;2665;53.112;7.358;2022-08-24T15:33:23;30.60;1.00
5286;DHT22;2665;53.112;7.358;2022-08-24T15:36:10;30.40;1.00
5286;DHT22;2665;53.112;7.358;2022-08-24T15:38:38;30.30;1.00
5286;DHT22;2665;53.112;7.358;2022-08-24T15:41:26;31.30;1.00
5286;DHT22;2665;53.112;7.358;2022-08-24T15:44:05;31.70;1.00
5286;DHT22;2665;53.112;7.358;2022-08-24T15:46:44;32.40;1.00
5286;DHT22;2665;53.112;7.358;2022-08-24T15:49:20;33.20;1.00
5286;DHT22;2665;53.112;7.358;2022-08-24T15:51:56;33.70;1.00
5286;DHT22;2665;53.112;7.358;2022-08-24T15:56:52;34.10;1.00
5286;DHT22;2665;53.112;7.358;2022-08-24T15:59:29;34.20;1.00
5286;DHT22;2665;53.112;7.358;2022-08-24T16:05:17;34.40;1.00
5286;DHT22;2665;53.112;7.358;2022-08-24T16:13:06;34.20;1.00
5286;DHT22;2665;53.112;7.358;2022-08-24T16:15:32;34.10;1.00
5286;DHT22;2665;53.112;7.358;2022-08-24T16:17:58;34.10;1.00
5286;DHT22;2665;53.112;7.358;2022-08-24T16:22:58;34.30;1.00
5286;DHT22;2665;53.112;7.358;2022-08-24T16:33:08;34.10;1.00
5286;DHT22;2665;53.112;7.358;2022-08-24T16:35:34;33.90;1.00
5286;DHT22;2665;53.112;7.358;2022-08-24T16:38:00;33.70;1.00
5286;DHT22;2665;53.112;7.358;2022-08-24T16:40:26;33.50;1.00
5286;DHT22;2665;53.112;7.358;2022-08-24T16:42:52;33.30;1.00
5286;DHT22;2665;53.112;7.358;2022-08-24T16:45:22;33.20;1.00
5286;DHT22;2665;53.112;7.358;2022-08-24T16:47:48;33.00;1.00
5286;DHT22;2665;53.112;7.358;2022-08-24T16:50:17;32.90;1.00
5286;DHT22;2665;53.112;7.358;2022-08-24T16:52:43;32.80;1.00
5286;DHT22;2665;53.112;7.358;2022-08-24T16:55:10;32.70;1.00
5286;DHT22;2665;53.112;7.358;2022-08-24T16:57:36;32.70;1.00
5286;DHT22;2665;53.112;7.358;2022-08-24T17:00:11;32.60;1.00
5286;DHT22;2665;53.112;7.358;2022-08-24T17:02:40;32.50;1.00
5286;DHT22;2665;53.112;7.358;2022-08-24T17:05:07;32.40;1.00
5286;DHT22;2665;53.112;7.358;2022-08-24T17:07:33;32.10;1.00
5286;DHT22;2665;53.112;7.358;2022-08-24T17:10:00;31.80;1.00
5286;DHT22;2665;53.112;7.358;2022-08-24T17:12:27;31.60;1.00
5286;DHT22;2665;53.112;7.358;2022-08-24T17:14:56;31.20;1.00
5286;DHT22;2665;53.112;7.358;2022-08-24T17:17:23;30.80;1.00
5286;DHT22;2665;53.112;7.358;2022-08-24T17:19:51;30.60;1.00
5286;DHT22;2665;53.112;7.358;2022-08-24T17:22:18;30.30;1.00
5286;DHT22;2665;53.112;7.358;2022-08-24T17:24:44;30.00;1.00
5286;DHT22;2665;53.112;7.358;2022-08-24T17:27:11;29.80;1.00
5286;DHT22;2665;53.112;7.358;2022-08-24T17:29:38;29.60;1.00
5286;DHT22;2665;53.112;7.358;2022-08-24T17:32:03;29.40;1.00
5286;DHT22;2665;53.112;7.358;2022-08-24T17:34:29;29.20;1.00
5286;DHT22;2665;53.112;7.358;2022-08-24T17:36:58;29.00;1.00
5286;DHT22;2665;53.112;7.358;2022-08-24T17:39:24;28.90;1.00
5286;DHT22;2665;53.112;7.358;2022-08-24T17:41:51;28.70;1.00
5286;DHT22;2665;53.112;7.358;2022-08-24T17:44:22;28.60;1.00
5286;DHT22;2665;53.112;7.358;2022-08-24T17:46:52;28.40;1.00
5286;DHT22;2665;53.112;7.358;2022-08-24T17:49:21;28.30;1.00
5286;DHT22;2665;53.112;7.358;2022-08-24T17:51:46;28.10;1.00
5286;DHT22;2665;53.112;7.358;2022-08-24T17:54:13;28.00;1.00
5286;DHT22;2665;53.112;7.358;2022-08-24T17:56:39;27.80;1.00
5286;DHT22;2665;53.112;7.358;2022-08-24T17:59:06;27.70;1.00
5286;DHT22;2665;53.112;7.358;2022-08-24T18:01:45;27.60;1.00
5286;DHT22;2665;53.112;7.358;2022-08-24T18:04:11;27.40;1.00
5286;DHT22;2665;53.112;7.358;2022-08-24T18:06:37;27.30;1.00
5286;DHT22;2665;53.112;7.358;2022-08-24T18:11:31;27.00;1.00
5286;DHT22;2665;53.112;7.358;2022-08-24T18:13:57;26.90;1.00
5286;DHT22;2665;53.112;7.358;2022-08-24T18:16:25;26.80;1.00
5286;DHT22;2665;53.112;7.358;2022-08-24T18:18:53;26.70;1.00
5286;DHT22;2665;53.112;7.358;2022-08-24T18:21:19;26.60;1.00
5286;DHT22;2665;53.112;7.358;2022-08-24T18:23:46;26.50;1.00
5286;DHT22;2665;53.112;7.358;2022-08-24T18:26:22;26.50;1.00
5286;DHT22;2665;53.112;7.358;2022-08-24T18:28:48;26.40;1.00
5286;DHT22;2665;53.112;7.358;2022-08-24T18:31:14;26.30;1.00
5286;DHT22;2665;53.112;7.358;2022-08-24T18:33:40;26.30;1.00
5286;DHT22;2665;53.112;7.358;2022-08-24T18:36:06;26.20;1.00
5286;DHT22;2665;53.112;7.358;2022-08-24T18:38:31;26.10;1.00
5286;DHT22;2665;53.112;7.358;2022-08-24T18:40:59;26.00;1.00
5286;DHT22;2665;53.112;7.358;2022-08-24T18:43:25;25.90;1.00
5286;DHT22;2665;53.112;7.358;2022-08-24T18:45:52;25.80;1.00
5286;DHT22;2665;53.112;7.358;2022-08-24T18:48:18;25.70;1.00
5286;DHT22;2665;53.112;7.358;2022-08-24T18:50:45;25.70;1.00
5286;DHT22;2665;53.112;7.358;2022-08-24T18:53:12;25.60;1.00
5286;DHT22;2665;53.112;7.358;2022-08-24T18:55:38;25.60;1.00
5286;DHT22;2665;53.112;7.358;2022-08-24T18:58:04;25.50;1.00
5286;DHT22;2665;53.112;7.358;2022-08-24T19:00:30;25.50;1.00
5286;DHT22;2665;53.112;7.358;2022-08-24T19:02:59;25.40;1.00
5286;DHT22;2665;53.112;7.358;2022-08-24T19:05:26;25.40;1.00
5286;DHT22;2665;53.112;7.358;2022-08-24T19:07:52;25.30;1.00
5286;DHT22;2665;53.112;7.358;2022-08-24T19:10:22;25.30;1.00
5286;DHT22;2665;53.112;7.358;2022-08-24T19:12:51;25.30;1.00
5286;DHT22;2665;53.112;7.358;2022-08-24T19:15:19;25.20;1.00
5286;DHT22;2665;53.112;7.358;2022-08-24T19:17:45;25.20;1.00
5286;DHT22;2665;53.112;7.358;2022-08-24T19:20:11;25.10;1.00
5286;DHT22;2665;53.112;7.358;2022-08-24T19:22:38;25.10;1.00
5286;DHT22;2665;53.112;7.358;2022-08-24T19:25:05;25.00;1.00
5286;DHT22;2665;53.112;7.358;2022-08-24T19:27:32;24.90;1.00
5286;DHT22;2665;53.112;7.358;2022-08-24T19:29:58;24.80;1.00
5286;DHT22;2665;53.112;7.358;2022-08-24T19:32:27;24.70;1.00
5286;DHT22;2665;53.112;7.358;2022-08-24T19:34:53;24.70;1.00
5286;DHT22;2665;53.112;7.358;2022-08-24T19:37:20;24.60;1.00
5286;DHT22;2665;53.112;7.358;2022-08-24T19:39:46;24.50;1.00
5286;DHT22;2665;53.112;7.358;2022-08-24T19:42:12;24.50;1.00
5286;DHT22;2665;53.112;7.358;2022-08-24T19:44:39;24.40;1.00
5286;DHT22;2665;53.112;7.358;2022-08-24T19:47:31;24.40;1.00
5286;DHT22;2665;53.112;7.358;2022-08-24T19:49:58;24.40;1.00
5286;DHT22;2665;53.112;7.358;2022-08-24T19:52:26;24.30;1.00
5286;DHT22;2665;53.112;7.358;2022-08-24T19:54:52;24.20;1.00
5286;DHT22;2665;53.112;7.358;2022-08-24T19:59:59;24.10;1.00
5286;DHT22;2665;53.112;7.358;2022-08-24T20:02:28;24.10;1.00
5286;DHT22;2665;53.112;7.358;2022-08-24T20:04:54;24.10;1.00
5286;DHT22;2665;53.112;7.358;2022-08-24T20:07:19;24.00;1.00
5286;DHT22;2665;53.112;7.358;2022-08-24T20:09:45;23.90;1.00